Time;durP1;ratioP1;P1;durP2;ratioP2;P2;SDS_P1;SDS_P2;PMS_P1;PMS_P2;Temp;Humidity;BMP_temperature;BMP_pressure;BME280_temperature;BME280_humidity;BME280_pressure;Samples;Min_cycle;Max_cycle;Signal;HPM_P1;HPM_P2
2024/04/15 00:02:20;;;;;;;6.47;2.10;;;;;;;17.63;47.85;100011.75;11400176;25;20016;-64
2024/04/15 00:07:23;;;;;;;;;;;;;;;17.65;47.02;100005.19;11397956;25;20738;-65
2024/04/15 00:12:25;;;;;;;5.35;2.50;;;;;;;17.57;47.75;99978.28;11419030;25;19930;-64
2024/04/15 00:17:26;;;;;;;3.97;2.30;;;;;;;17.48;47.35;99982.88;11427818;25;20765;-64
2024/04/15 00:22:30;;;;;;;;;;;;;;;17.56;46.68;99971.22;11367245;25;20149;-65
2024/04/15 00:27:32;;;;;;;2.55;1.60;;;;;;;17.53;46.44;99974.25;11426427;25;25277;-64
2024/04/15 00:32:33;;;;;;;4.35;2.05;;;;;;;17.42;46.82;99959.34;11400559;25;20474;-65
2024/04/15 00:37:35;;;;;;;3.70;1.50;;;;;;;17.52;46.51;99944.84;11422100;25;20009;-64
2024/04/15 00:42:36;;;;;;;9.55;3.00;;;;;;;17.49;46.57;99924.53;11422203;25;20652;-65
2024/04/15 00:47:38;;;;;;;3.75;1.45;;;;;;;17.47;46.43;99908.56;11383590;25;20009;-64
2024/04/15 00:52:39;;;;;;;4.78;1.85;;;;;;;17.47;46.57;99913.09;11347586;25;20010;-65
2024/04/15 00:57:43;;;;;;;5.68;1.67;;;;;;;17.40;46.68;99887.91;11374672;25;20496;-65
2024/04/15 01:02:45;;;;;;;;;;;;;;;17.43;46.67;99892.91;11427253;25;20036;-65
2024/04/15 01:07:46;;;;;;;2.95;1.98;;;;;;;17.38;46.45;99890.75;11424374;25;19923;-65
2024/04/15 01:12:48;;;;;;;3.50;2.08;;;;;;;17.34;46.63;99884.09;11427810;25;19996;-64
2024/04/15 01:17:57;;;;;;;2.28;1.48;;;;;;;17.36;46.99;99894.66;11407667;25;20088;-65
2024/04/15 01:23:08;;;;;;;2.85;1.50;;;;;;;17.39;47.20;99891.63;11397612;25;21091;-65
2024/04/15 01:28:13;;;;;;;3.65;1.98;;;;;;;17.34;46.70;99884.09;11419592;25;20000;-65
2024/04/15 01:33:15;;;;;;;3.22;1.90;;;;;;;17.26;46.39;99859.91;11375796;25;20768;-60
2024/04/15 01:38:16;;;;;;;5.93;1.95;;;;;;;17.31;46.82;99858.38;11389358;25;20786;-61
2024/04/15 01:43:18;;;;;;;4.70;1.85;;;;;;;17.30;47.09;99861.22;11351361;25;20085;-63
2024/04/15 01:48:19;;;;;;;4.45;2.40;;;;;;;17.29;46.70;99854.16;11383640;25;20004;-62
2024/04/15 01:53:21;;;;;;;4.45;2.50;;;;;;;17.16;47.17;99830.56;11394232;25;20008;-61
2024/04/15 01:58:22;;;;;;;6.88;2.47;;;;;;;17.13;47.63;99831.75;11433729;25;20386;-62
2024/04/15 02:03:24;;;;;;;4.70;1.83;;;;;;;17.13;47.85;99820.16;11386258;25;20020;-62
2024/04/15 02:08:26;;;;;;;3.47;1.73;;;;;;;17.14;48.16;99819.13;11431680;25;20120;-61
2024/04/15 02:13:28;;;;;;;5.20;1.85;;;;;;;17.07;48.79;99810.94;11396821;25;20005;-61
2024/04/15 02:18:29;;;;;;;3.90;2.22;;;;;;;17.02;49.54;99813.28;11423836;25;20009;-62
2024/04/15 02:23:31;;;;;;;2.83;1.85;;;;;;;17.03;49.79;99816.84;11426711;25;20016;-62
2024/04/15 02:28:33;;;;;;;3.13;1.85;;;;;;;17.02;50.14;99799.03;11417988;25;20005;-60
2024/04/15 02:33:37;;;;;;;4.75;1.73;;;;;;;16.91;50.54;99803.78;11426546;25;20031;-62
2024/04/15 02:38:41;;;;;;;3.88;2.17;;;;;;;16.79;51.17;99799.78;11392868;25;20004;-62
2024/04/15 02:43:42;;;;;;;4.40;2.03;;;;;;;16.87;51.18;99813.19;11363582;25;20401;-62
2024/04/15 02:48:44;;;;;;;5.30;1.42;;;;;;;16.79;50.97;99816.75;11433151;25;20008;-61
2024/04/15 02:53:45;;;;;;;3.88;2.08;;;;;;;16.76;51.61;99809.03;11428458;25;20012;-62
2024/04/15 02:58:47;;;;;;;3.40;1.90;;;;;;;16.77;51.27;99815.25;11428038;25;20004;-61
2024/04/15 03:03:52;;;;;;;3.28;1.77;;;;;;;16.72;51.61;99804.19;11432275;25;20004;-62
2024/04/15 03:08:54;;;;;;;4.13;1.77;;;;;;;16.70;52.26;99807.03;11436330;25;20017;-61
2024/04/15 03:13:56;;;;;;;5.38;2.20;;;;;;;16.70;51.85;99792.78;11419828;25;20011;-62
2024/04/15 03:18:58;;;;;;;3.95;2.00;;;;;;;16.56;51.72;99764.78;11381809;25;20015;-61
2024/04/15 03:23:59;;;;;;;5.28;2.20;;;;;;;16.66;52.54;99778.00;11424672;25;20067;-63
2024/04/15 03:29:01;;;;;;;3.05;1.88;;;;;;;16.65;52.41;99771.81;11420835;25;20046;-60
2024/04/15 03:34:03;;;;;;;4.72;1.90;;;;;;;16.52;52.43;99761.59;11422042;25;20073;-61
2024/04/15 03:39:04;;;;;;;3.30;1.67;;;;;;;16.58;52.43;99776.19;11425455;25;20000;-62
2024/04/15 03:44:06;;;;;;;2.13;1.92;;;;;;;16.51;53.19;99776.03;11430157;25;20009;-62
2024/04/15 03:49:07;;;;;;;3.75;2.00;;;;;;;16.53;53.16;99774.03;11393710;25;20004;-61
2024/04/15 03:54:09;;;;;;;3.20;2.05;;;;;;;16.52;54.87;99766.97;11437005;25;20077;-61
2024/04/15 03:59:11;;;;;;;5.68;2.40;;;;;;;16.52;55.18;99777.72;11382102;25;20113;-60
2024/04/15 04:04:15;;;;;;;3.67;2.17;;;;;;;16.50;55.35;99773.53;11423400;25;20087;-61
2024/04/15 04:09:17;;;;;;;5.40;2.08;;;;;;;16.46;56.20;99766.84;11433675;25;20004;-61
2024/04/15 04:14:18;;;;;;;4.93;2.30;;;;;;;16.40;56.45;99768.38;11427934;25;20840;-61
2024/04/15 04:19:25;;;;;;;5.53;2.20;;;;;;;16.42;56.00;99775.25;11429123;25;20008;-62
2024/04/15 04:24:28;;;;;;;7.45;2.88;;;;;;;16.30;56.10;99791.91;11377486;25;20014;-61
2024/04/15 04:29:33;;;;;;;5.10;2.63;;;;;;;16.28;56.87;99797.44;11391754;25;20678;-61
2024/04/15 04:34:34;;;;;;;7.30;3.20;;;;;;;16.29;57.76;99795.59;11428041;25;20683;-62
2024/04/15 04:39:36;;;;;;;4.47;3.28;;;;;;;16.26;57.54;99804.84;11435972;25;20009;-60
2024/04/15 04:44:37;;;;;;;6.38;3.85;;;;;;;16.23;57.58;99800.66;11464043;25;20008;-60
2024/04/15 04:49:39;;;;;;;6.30;3.60;;;;;;;16.22;57.86;99793.59;11397489;25;20010;-61
2024/04/15 04:54:43;;;;;;;7.72;4.32;;;;;;;16.17;57.95;99795.97;11422053;25;20076;-62
2024/04/15 04:59:44;;;;;;;;;;;;;;;15.88;57.84;99754.41;11434099;25;20005;-60
2024/04/15 05:04:46;;;;;;;8.63;4.07;;;;;;;16.05;57.54;99797.34;11406418;25;19946;-62
2024/04/15 05:09:47;;;;;;;7.03;3.90;;;;;;;15.97;58.77;99798.16;11376642;25;21454;-63
2024/04/15 05:14:49;;;;;;;5.20;3.72;;;;;;;15.94;57.69;99784.25;11361793;25;20505;-67
2024/04/15 05:19:51;;;;;;;6.53;3.45;;;;;;;15.94;57.63;99778.88;11438498;25;21081;-63
2024/04/15 05:24:56;;;;;;;7.88;3.95;;;;;;;15.98;56.92;99774.84;11428503;25;20048;-63
2024/04/15 05:29:58;;;;;;;5.65;3.42;;;;;;;15.92;56.37;99770.19;11420916;25;20008;-63
2024/04/15 05:34:59;;;;;;;7.13;3.78;;;;;;;15.95;56.57;99781.41;11437783;25;20076;-62
2024/04/15 05:40:01;;;;;;;6.75;3.60;;;;;;;15.85;56.24;99765.50;11436417;25;20027;-61
2024/04/15 05:45:03;;;;;;;4.32;3.20;;;;;;;15.95;56.41;99773.34;11439062;25;20426;-59
2024/04/15 05:50:05;;;;;;;6.95;3.58;;;;;;;15.96;56.47;99766.13;11429798;25;20013;-62
2024/04/15 05:55:07;;;;;;;8.10;3.72;;;;;;;16.01;56.27;99763.78;11442600;25;20061;-60
2024/04/15 06:00:09;;;;;;;4.15;3.58;;;;;;;16.01;56.73;99742.31;11434746;25;20381;-64
2024/04/15 06:05:10;;;;;;;7.50;4.15;;;;;;;16.04;57.82;99747.31;11442600;25;20008;-61
2024/04/15 06:10:13;;;;;;;8.90;3.85;;;;;;;16.04;57.55;99742.78;11396111;25;20335;-61
2024/04/15 06:15:15;;;;;;;7.55;3.58;;;;;;;15.96;57.65;99753.56;11443435;25;20019;-60
2024/04/15 06:20:16;;;;;;;6.18;4.10;;;;;;;15.85;57.79;99760.13;11382178;25;20002;-63
2024/04/15 06:25:22;;;;;;;7.55;3.47;;;;;;;15.83;56.02;99754.06;11393397;25;20085;-63
2024/04/15 06:30:25;;;;;;;5.55;2.17;;;;;;;15.76;54.79;99750.34;11436213;25;20850;-61
2024/04/15 06:35:26;;;;;;;3.58;2.53;;;;;;;15.77;53.98;99746.66;11435973;25;20013;-64
2024/04/15 06:40:29;;;;;;;5.32;2.92;;;;;;;15.57;53.99;99730.09;11432287;25;20023;-63
2024/04/15 06:45:31;;;;;;;7.57;2.90;;;;;;;15.69;53.92;99739.47;11440038;25;20004;-62
2024/04/15 06:50:32;;;;;;;6.13;2.65;;;;;;;15.73;53.72;99738.13;11410672;25;20000;-66
2024/04/15 06:55:35;;;;;;;7.10;2.58;;;;;;;15.65;52.66;99737.31;11434106;25;20088;-63
2024/04/15 07:00:37;;;;;;;4.60;1.92;;;;;;;15.63;53.47;99728.59;11428363;25;20028;-62
2024/04/15 07:05:41;;;;;;;4.28;2.75;;;;;;;15.84;53.42;99723.56;11397503;25;20004;-64
2024/04/15 07:10:42;;;;;;;4.80;2.85;;;;;;;15.87;52.90;99725.88;11314511;25;20043;-63
2024/04/15 07:15:44;;;;;;;6.88;3.05;;;;;;;15.84;53.67;99715.50;11364540;25;21309;-62
2024/04/15 07:20:47;;;;;;;5.97;3.05;;;;;;;15.93;53.42;99704.72;11422934;25;20073;-62
2024/04/15 07:25:55;;;;;;;6.78;3.10;;;;;;;15.93;52.17;99696.69;11436272;25;20468;-64
2024/04/15 07:31:02;;;;;;;3.30;2.53;;;;;;;16.04;52.93;99688.28;11421823;25;20510;-63
2024/04/15 07:36:05;;;;;;;4.20;3.05;;;;;;;16.20;52.61;99671.28;11308252;25;20024;-63
2024/04/15 07:41:11;;;;;;;6.05;2.60;;;;;;;16.05;51.23;99663.09;11397994;25;20048;-63
2024/04/15 07:46:14;;;;;;;8.00;2.90;;;;;;;16.30;51.42;99644.19;11436805;25;20091;-64
2024/04/15 07:51:16;;;;;;;6.07;3.10;;;;;;;16.51;50.55;99636.34;11435775;25;20012;-63
2024/04/15 07:56:20;;;;;;;3.25;2.60;;;;;;;16.61;50.49;99602.03;11435059;25;20052;-63
2024/04/15 08:01:22;;;;;;;6.13;3.78;;;;;;;16.51;51.54;99603.28;11433920;25;20088;-61
2024/04/15 08:06:24;;;;;;;6.80;3.47;;;;;;;16.61;51.74;99604.72;11389287;25;20023;-62
2024/04/15 08:11:25;;;;;;;9.98;3.90;;;;;;;16.73;50.75;99593.56;11414551;25;20459;-63
2024/04/15 08:16:27;;;;;;;6.32;3.30;;;;;;;16.92;50.98;99597.66;11419098;25;20038;-62
2024/04/15 08:21:29;;;;;;;6.40;2.90;;;;;;;17.11;48.08;99602.53;11429365;25;20004;-63
2024/04/15 08:26:32;;;;;;;6.20;2.40;;;;;;;17.12;47.37;99585.34;11376842;25;20000;-62
2024/04/15 08:31:38;;;;;;;3.40;1.33;;;;;;;17.22;45.17;99593.19;11321007;25;20012;-62
2024/04/15 08:36:39;;;;;;;2.22;0.77;;;;;;;17.10;43.29;99610.78;11381371;25;20001;-63
2024/04/15 08:41:50;;;;;;;1.90;0.77;;;;;;;16.71;44.05;99592.88;11394144;25;20056;-63
2024/04/15 08:47:12;;;;;;;3.08;0.80;;;;;;;17.11;43.71;99590.91;11436468;25;20052;-60
2024/04/15 08:52:16;;;;;;;3.25;0.77;;;;;;;17.30;43.95;99592.25;11406155;25;20012;-64
2024/04/15 08:57:20;;;;;;;1.63;0.68;;;;;;;17.09;43.86;99579.50;11435181;25;20009;-64
2024/04/15 09:02:22;;;;;;;2.85;1.08;;;;;;;17.09;43.99;99579.50;11423585;25;20009;-63
2024/04/15 09:07:23;;;;;;;3.30;0.80;;;;;;;16.97;43.55;99538.78;11410644;25;20585;-64
2024/04/15 09:12:41;;;;;;;3.72;0.85;;;;;;;17.41;44.15;99546.06;11429695;25;20150;-63
2024/04/15 09:17:43;;;;;;;1.75;0.52;;;;;;;17.87;43.16;99536.13;11409942;25;20054;-63
2024/04/15 09:22:52;;;;;;;1.23;0.30;;;;;;;18.06;41.01;99507.75;11391122;25;20073;-63
2024/04/15 09:27:56;;;;;;;5.97;0.68;;;;;;;17.59;41.40;99499.94;11412052;25;20639;-63
2024/04/15 09:32:59;;;;;;;2.15;0.40;;;;;;;17.53;41.49;99494.47;11433192;25;20033;-61
2024/04/15 09:38:02;;;;;;;3.25;0.65;;;;;;;17.57;41.22;99503.84;11393379;25;20013;-63
2024/04/15 09:43:07;;;;;;;2.93;0.50;;;;;;;18.02;41.64;99467.75;11424537;25;20009;-61
2024/04/15 09:48:19;;;;;;;8.02;1.30;;;;;;;18.87;38.77;99465.22;11332698;25;20213;-62
2024/04/15 09:53:38;;;;;;;3.92;0.80;;;;;;;19.23;38.10;99448.00;11420692;25;20016;-63
2024/04/15 09:58:43;;;;;;;3.08;0.60;;;;;;;19.34;37.65;99433.09;11364065;25;20008;-60
2024/04/15 10:03:50;;;;;;;2.30;0.55;;;;;;;19.01;37.37;99433.75;11394114;25;20537;-61
2024/04/15 10:08:54;;;;;;;1.48;0.63;;;;;;;19.28;37.66;99412.31;11367973;25;20552;-61
2024/04/15 10:13:56;;;;;;;;;;;;;;;19.73;35.08;99399.19;11378520;25;20006;-61
2024/04/15 10:18:59;;;;;;;2.53;0.30;;;;;;;19.83;33.04;99384.47;11350812;25;19930;-62
2024/04/15 10:24:03;;;;;;;3.63;0.40;;;;;;;19.73;33.83;99361.38;11408720;25;20793;-64
2024/04/15 10:29:17;;;;;;;1.98;0.30;;;;;;;20.33;34.50;99366.03;11392122;25;20369;-61
2024/04/15 10:34:22;;;;;;;2.87;0.67;;;;;;;20.79;33.52;99351.66;11351972;25;20709;-64
2024/04/15 10:39:24;;;;;;;1.83;0.25;;;;;;;20.59;30.90;99346.22;11391957;25;20027;-62
2024/04/15 10:44:27;;;;;;;3.08;0.40;;;;;;;20.93;32.41;99330.78;11359881;25;20028;-64
2024/04/15 10:49:29;;;;;;;;;;;;;;;21.25;31.37;99335.44;11399842;25;20549;-63
2024/04/15 10:54:31;;;;;;;2.17;0.43;;;;;;;22.02;31.38;99311.00;11409015;25;20657;-61
2024/04/15 10:59:34;;;;;;;2.53;0.43;;;;;;;21.44;31.16;99320.13;11410183;25;19998;-60
2024/04/15 11:04:37;;;;;;;4.80;0.50;;;;;;;22.08;28.87;99291.13;11427899;25;20098;-63
2024/04/15 11:09:39;;;;;;;3.43;1.00;;;;;;;21.37;30.67;99295.81;11411736;25;20026;-62
2024/04/15 11:14:42;;;;;;;1.60;0.30;;;;;;;22.56;29.66;99286.94;11348828;25;20118;-63
2024/04/15 11:19:44;;;;;;;1.17;0.20;;;;;;;23.09;29.00;99267.34;11418906;25;20008;-63
2024/04/15 11:24:45;;;;;;;2.88;0.30;;;;;;;23.07;27.21;99274.00;11430490;25;20430;-63
2024/04/15 11:29:47;;;;;;;3.00;0.38;;;;;;;23.15;27.41;99213.19;11350454;25;20019;-63
2024/04/15 11:35:04;;;;;;;3.58;0.80;;;;;;;23.27;27.79;99223.03;11421975;25;20004;-64
2024/04/15 11:40:09;;;;;;;1.20;0.30;;;;;;;23.17;27.92;99195.63;11429059;25;20005;-63
2024/04/15 11:45:14;;;;;;;13.75;1.83;;;;;;;22.66;27.66;99205.06;11371685;25;20418;-64
2024/04/15 11:50:16;;;;;;;14.73;2.10;;;;;;;22.70;29.20;99179.97;11421169;25;20081;-62
2024/04/15 11:55:20;;;;;;;4.13;0.50;;;;;;;22.75;27.41;99166.53;11426552;25;20862;-63
2024/04/15 12:00:23;;;;;;;3.20;0.38;;;;;;;22.91;27.07;99159.66;11400377;25;20017;-60
2024/04/15 12:05:26;;;;;;;15.88;1.25;;;;;;;22.71;27.94;99145.53;11427960;25;20009;-63
2024/04/15 12:10:27;;;;;;;4.90;0.60;;;;;;;23.45;27.66;99142.56;11394979;25;20084;-62
2024/04/15 12:15:29;;;;;;;14.00;1.58;;;;;;;23.11;27.57;99121.38;11369508;25;20040;-62
2024/04/15 12:20:30;;;;;;;3.45;0.20;;;;;;;22.63;27.00;99111.41;11422066;25;20077;-62
2024/04/15 12:25:32;;;;;;;8.50;0.77;;;;;;;22.43;27.40;99068.31;11430999;25;20020;-64
2024/04/15 12:30:33;;;;;;;9.65;0.82;;;;;;;22.08;28.34;99079.78;11383941;25;20052;-61
2024/04/15 12:35:35;;;;;;;13.88;1.52;;;;;;;21.92;27.95;99067.69;11428975;25;20027;-62
2024/04/15 12:40:39;;;;;;;1.33;0.43;;;;;;;21.63;28.27;99047.59;11299506;25;20009;-61
2024/04/15 12:45:41;;;;;;;12.20;1.70;;;;;;;22.14;31.81;99049.06;11369467;25;20008;-63
2024/04/15 12:50:47;;;;;;;12.10;1.48;;;;;;;22.28;26.72;99024.50;11416122;25;20024;-62
2024/04/15 12:55:50;;;;;;;3.60;0.40;;;;;;;21.69;27.65;99025.03;11350510;25;20001;-62
2024/04/15 13:00:52;;;;;;;;;;;;;;;21.85;28.06;99010.88;11401445;25;20001;-63
2024/04/15 13:05:54;;;;;;;12.88;0.88;;;;;;;21.81;27.75;98998.03;11386180;25;19995;-63
2024/04/15 13:10:56;;;;;;;3.47;0.63;;;;;;;21.38;27.83;98994.34;11429579;25;20060;-62
2024/04/15 13:15:57;;;;;;;5.68;0.45;;;;;;;20.49;28.77;98962.00;11412484;25;20073;-63
2024/04/15 13:21:00;;;;;;;4.03;0.70;;;;;;;20.68;28.45;98971.06;11379690;25;20085;-62
2024/04/15 13:26:01;;;;;;;3.45;0.70;;;;;;;20.54;27.85;98945.16;11390721;25;20020;-64
2024/04/15 13:31:03;;;;;;;5.57;0.75;;;;;;;20.17;29.32;98934.22;11421989;25;20088;-64
2024/04/15 13:36:05;;;;;;;3.83;0.57;;;;;;;19.89;29.95;98932.69;11427626;25;20000;-64
2024/04/15 13:41:08;;;;;;;2.83;0.57;;;;;;;19.88;30.14;98914.88;11431563;25;20017;-63
2024/04/15 13:46:12;;;;;;;2.83;0.50;;;;;;;20.26;28.35;98893.19;11394075;25;20084;-63
2024/04/15 13:51:14;;;;;;;1.92;0.47;;;;;;;19.91;29.00;98893.66;11439131;25;22679;-62
2024/04/15 13:56:16;;;;;;;3.72;0.45;;;;;;;19.64;30.10;98874.06;11391034;25;19997;-63
2024/04/15 14:01:17;;;;;;;5.63;0.63;;;;;;;19.60;30.07;98864.72;11393311;25;20012;-63
2024/04/15 14:06:20;;;;;;;8.05;1.13;;;;;;;19.31;27.68;98871.53;11394374;25;19996;-63
2024/04/15 14:11:21;;;;;;;8.15;1.00;;;;;;;19.25;28.39;98851.63;11351048;25;20608;-63
2024/04/15 14:16:26;;;;;;;4.57;0.53;;;;;;;19.19;28.28;98844.38;11403352;25;20004;-61
2024/04/15 14:21:28;;;;;;;2.95;0.30;;;;;;;19.63;28.95;98847.28;11430819;25;20008;-63
2024/04/15 14:26:30;;;;;;;9.77;1.08;;;;;;;19.19;28.33;98830.91;11359966;25;20093;-61
2024/04/15 14:31:32;;;;;;;2.88;0.47;;;;;;;19.03;28.36;98841.09;11431868;25;20707;-61
2024/04/15 14:36:33;;;;;;;5.22;0.65;;;;;;;18.64;28.35;98856.31;11394256;25;20008;-63
2024/04/15 14:41:35;;;;;;;2.80;0.60;;;;;;;18.36;29.08;98852.03;11377657;25;20156;-62
2024/04/15 14:46:39;;;;;;;5.35;0.60;;;;;;;18.11;29.03;98851.00;11357657;25;20028;-63
2024/04/15 14:51:44;;;;;;;3.70;0.50;;;;;;;17.90;29.44;98796.31;11438453;25;20470;-64
2024/04/15 14:56:46;;;;;;;5.93;0.70;;;;;;;18.08;29.82;98817.22;11436908;25;20013;-64
2024/04/15 15:01:49;;;;;;;6.03;0.68;;;;;;;18.05;29.76;98792.59;11436838;25;20004;-65
2024/04/15 15:06:50;;;;;;;4.88;0.40;;;;;;;18.00;30.22;98794.03;11422036;25;20017;-64
2024/04/15 15:11:52;;;;;;;3.13;0.75;;;;;;;17.81;30.05;98781.38;11376294;25;20049;-64
2024/04/15 15:16:54;;;;;;;3.40;0.50;;;;;;;17.87;30.32;98818.22;11390941;25;20000;-63
2024/04/15 15:22:03;;;;;;;2.30;0.50;;;;;;;17.65;31.04;98767.28;11427920;25;20001;-64
2024/04/15 15:27:05;;;;;;;3.33;0.98;;;;;;;17.91;31.24;98746.81;11396731;25;20912;-61
2024/04/15 15:32:07;;;;;;;2.30;0.68;;;;;;;17.98;31.60;98750.31;11333556;25;20008;-64
2024/04/15 15:37:09;;;;;;;3.90;0.60;;;;;;;17.94;31.45;98753.63;11398678;25;20440;-63
2024/04/15 15:42:11;;;;;;;5.07;0.50;;;;;;;17.27;32.66;98746.31;11429486;25;20031;-63
2024/04/15 15:47:15;;;;;;;3.00;0.40;;;;;;;17.14;32.98;98743.59;11419532;25;20016;-65
2024/04/15 15:52:18;;;;;;;3.83;0.75;;;;;;;17.04;32.76;98754.75;11384307;25;20000;-63
2024/04/15 15:57:19;;;;;;;5.75;0.70;;;;;;;16.89;33.04;98733.41;11429407;25;20015;-64
2024/04/15 16:02:21;;;;;;;4.57;0.60;;;;;;;16.82;33.07;98708.34;11425511;25;20019;-64
2024/04/15 16:07:37;;;;;;;7.63;0.80;;;;;;;16.84;33.38;98698.19;11394638;25;20008;-62
2024/04/15 16:12:39;;;;;;;2.63;0.70;;;;;;;16.96;32.44;98704.69;11424908;25;20011;-61
2024/04/15 16:17:42;;;;;;;3.65;0.43;;;;;;;16.94;33.05;98687.94;11396145;25;20001;-62
2024/04/15 16:22:43;;;;;;;8.13;1.03;;;;;;;16.89;33.10;98724.50;11431834;25;20076;-62
2024/04/15 16:27:45;;;;;;;5.22;0.80;;;;;;;16.69;34.25;98682.22;11392513;25;20020;-62
2024/04/15 16:32:46;;;;;;;3.72;0.60;;;;;;;16.49;34.44;98668.75;11427575;25;20004;-63
2024/04/15 16:37:48;;;;;;;8.43;0.60;;;;;;;16.42;34.93;98694.72;11359867;25;20012;-62
2024/04/15 16:42:50;;;;;;;4.70;1.02;;;;;;;16.37;35.33;98699.88;11429791;25;20464;-63
2024/04/15 16:47:52;;;;;;;7.65;0.70;;;;;;;16.07;37.03;98706.31;11423873;25;20103;-64
2024/04/15 16:52:53;;;;;;;8.38;0.52;;;;;;;15.80;42.72;98729.44;11426376;25;20016;-62
2024/04/15 16:57:57;;;;;;;2.13;0.60;;;;;;;15.39;46.90;98756.94;11432766;25;20140;-62
2024/04/15 17:02:59;;;;;;;4.40;0.60;;;;;;;15.07;47.72;98769.75;11431203;25;20067;-63
2024/04/15 17:08:01;;;;;;;2.28;0.60;;;;;;;15.08;48.98;98784.84;11408808;25;20881;-64
2024/04/15 17:13:03;;;;;;;6.60;0.90;;;;;;;15.02;54.81;98831.13;11424085;25;20013;-63
2024/04/15 17:18:04;;;;;;;7.40;0.40;;;;;;;14.54;56.70;98905.66;11431090;25;22670;-61
2024/04/15 17:23:09;;;;;;;;;;;;;;;12.71;60.73;98949.56;11404457;25;20048;-61
2024/04/15 17:28:11;;;;;;;2.85;0.20;;;;;;;12.79;58.67;98935.34;11404683;25;19930;-62
2024/04/15 17:33:12;;;;;;;27.98;13.73;;;;;;;12.71;58.18;98938.88;11372241;25;20019;-63
2024/04/15 17:38:15;;;;;;;1.60;0.10;;;;;;;12.49;56.57;98913.69;11377750;25;20085;-62
2024/04/15 17:43:16;;;;;;;1.60;0.63;;;;;;;12.83;58.29;98952.69;11385129;25;20410;-64
2024/04/15 17:48:18;;;;;;;0.55;0.00;;;;;;;12.69;56.62;98979.09;11391968;25;20008;-63
2024/04/15 17:53:20;;;;;;;0.50;0.17;;;;;;;12.21;57.75;99012.78;11428145;25;20077;-66
2024/04/15 17:58:21;;;;;;;1.15;0.28;;;;;;;12.18;57.17;99029.94;11384322;25;20015;-63
2024/04/15 18:03:23;;;;;;;1.90;0.30;;;;;;;12.32;57.19;99055.13;11409898;25;20143;-61
2024/04/15 18:08:25;;;;;;;0.40;0.10;;;;;;;12.26;58.19;99093.13;11414911;25;20463;-64
2024/04/15 18:13:29;;;;;;;1.38;0.20;;;;;;;12.40;58.32;99102.38;11398819;25;20775;-63
2024/04/15 18:18:31;;;;;;;4.85;2.08;;;;;;;11.98;59.00;99088.06;11371469;25;20009;-62
2024/04/15 18:23:34;;;;;;;0.90;0.30;;;;;;;11.84;57.25;99070.81;11401970;25;20044;-63
2024/04/15 18:28:36;;;;;;;1.27;0.10;;;;;;;11.96;58.30;99060.69;11424148;25;20032;-64
2024/04/15 18:33:37;;;;;;;1.45;0.13;;;;;;;11.88;58.46;99060.66;11435726;25;20462;-62
2024/04/15 18:38:40;;;;;;;1.38;0.20;;;;;;;11.66;57.15;99068.25;11368990;25;20025;-64
2024/04/15 18:43:44;;;;;;;0.28;0.10;;;;;;;11.60;58.09;99111.50;11389128;25;20017;-63
2024/04/15 18:48:45;;;;;;;0.70;0.20;;;;;;;11.44;55.84;99074.09;11434446;25;20009;-64
2024/04/15 18:53:49;;;;;;;0.70;0.10;;;;;;;11.32;57.07;99070.88;11410385;25;20024;-62
2024/04/15 18:58:53;;;;;;;0.93;0.10;;;;;;;11.22;56.38;99107.44;11336649;25;20016;-64
2024/04/15 19:03:56;;;;;;;0.47;0.03;;;;;;;10.98;55.26;99116.09;11404880;25;20315;-63
2024/04/15 19:08:57;;;;;;;0.47;0.22;;;;;;;10.97;55.43;99131.22;11367975;25;20006;-65
2024/04/15 19:14:00;;;;;;;0.90;0.20;;;;;;;11.02;57.40;99165.38;11415775;25;20016;-64
2024/04/15 19:19:02;;;;;;;0.60;0.20;;;;;;;10.98;56.53;99158.69;11336094;25;20027;-64
2024/04/15 19:24:04;;;;;;;0.65;0.50;;;;;;;10.90;56.83;99128.34;11440655;25;20009;-64
2024/04/15 19:29:09;;;;;;;0.77;0.28;;;;;;;10.61;57.82;99121.44;11431568;25;20016;-63
2024/04/15 19:34:10;;;;;;;1.48;0.22;;;;;;;10.60;57.37;99151.69;11379657;25;20004;-63
2024/04/15 19:39:12;;;;;;;1.40;0.30;;;;;;;10.36;58.58;99165.56;11430999;25;20016;-64
2024/04/15 19:44:15;;;;;;;1.67;0.38;;;;;;;10.26;58.73;99172.72;11381668;25;20051;-64
2024/04/15 19:49:16;;;;;;;2.53;0.63;;;;;;;10.27;58.54;99167.25;11419681;25;20067;-64
2024/04/15 19:54:19;;;;;;;1.88;0.30;;;;;;;10.04;59.42;99123.41;11382429;25;20020;-64
2024/04/15 19:59:21;;;;;;;0.82;0.17;;;;;;;9.86;59.20;99128.66;11422743;25;21121;-63
2024/04/15 20:04:22;;;;;;;1.25;0.30;;;;;;;9.86;59.59;99156.09;11401343;25;20741;-61
2024/04/15 20:09:26;;;;;;;1.23;0.22;;;;;;;9.68;59.63;99139.22;11437130;25;20124;-63
2024/04/15 20:14:33;;;;;;;0.85;0.30;;;;;;;9.40;59.74;99128.56;11388610;25;20009;-65
2024/04/15 20:19:45;;;;;;;0.85;0.20;;;;;;;9.54;59.51;99167.09;11396718;25;20013;-63
2024/04/15 20:24:46;;;;;;;0.85;0.30;;;;;;;9.47;59.71;99156.22;11407551;25;20463;-63
2024/04/15 20:29:48;;;;;;;0.93;0.13;;;;;;;9.46;59.05;99165.16;11432581;25;20385;-63
2024/04/15 20:34:50;;;;;;;1.15;0.20;;;;;;;9.44;59.16;99171.59;11432753;25;20569;-65
2024/04/15 20:39:54;;;;;;;3.17;0.47;;;;;;;9.26;59.56;99171.47;11406832;25;20615;-64
2024/04/15 20:44:57;;;;;;;2.08;0.20;;;;;;;9.26;59.94;99190.06;11388284;25;20004;-63
2024/04/15 20:49:59;;;;;;;1.08;0.20;;;;;;;9.30;59.77;99188.81;11435462;25;20100;-64
2024/04/15 20:55:01;;;;;;;1.90;0.32;;;;;;;9.62;59.23;99193.78;11370226;25;20081;-63
2024/04/15 21:00:03;;;;;;;0.88;0.30;;;;;;;9.73;58.55;99184.81;11395041;25;20028;-63
2024/04/15 21:05:05;;;;;;;0.85;0.20;;;;;;;9.43;59.25;99178.75;11390992;25;20597;-62
2024/04/15 21:10:08;;;;;;;2.35;0.50;;;;;;;9.59;58.97;99202.03;11429178;25;20044;-62
2024/04/15 21:15:10;;;;;;;2.10;0.63;;;;;;;9.52;58.82;99193.00;11423167;25;20013;-63
2024/04/15 21:20:13;;;;;;;1.75;0.40;;;;;;;9.23;59.71;99193.00;11396629;25;20016;-62
2024/04/15 21:25:14;;;;;;;1.05;0.30;;;;;;;9.26;59.78;99193.56;11394094;25;20005;-62
2024/04/15 21:30:16;;;;;;;1.23;0.40;;;;;;;9.18;59.98;99188.94;11431197;25;20012;-63
2024/04/15 21:35:19;;;;;;;0.73;0.45;;;;;;;9.20;60.03;99172.88;11414342;25;19992;-63
2024/04/15 21:40:21;;;;;;;0.60;0.17;;;;;;;9.14;61.02;99173.44;11423175;25;20000;-66
2024/04/15 21:45:24;;;;;;;2.53;0.30;;;;;;;9.13;62.15;99162.00;11383731;25;20005;-63
2024/04/15 21:50:25;;;;;;;2.28;0.52;;;;;;;9.06;61.83;99136.97;11440906;25;20096;-63
2024/04/15 21:55:27;;;;;;;0.98;0.40;;;;;;;8.96;63.16;99150.28;11424330;25;20103;-63
2024/04/15 22:00:30;;;;;;;2.95;0.80;;;;;;;8.96;63.84;99144.13;11404444;25;20004;-65
2024/04/15 22:05:33;;;;;;;1.50;0.50;;;;;;;8.94;63.68;99108.91;11402854;25;20002;-63
2024/04/15 22:10:34;;;;;;;2.15;0.38;;;;;;;9.10;63.96;99143.69;11438373;25;20017;-62
2024/04/15 22:15:36;;;;;;;1.50;0.38;;;;;;;9.16;63.75;99144.97;11390671;25;20009;-62
2024/04/15 22:20:38;;;;;;;0.95;0.28;;;;;;;8.75;64.02;99137.16;11405384;25;20006;-63
2024/04/15 22:25:40;;;;;;;1.65;0.30;;;;;;;8.75;65.17;99129.19;11419629;25;20020;-63
2024/04/15 22:30:42;;;;;;;1.13;0.38;;;;;;;8.94;64.75;99119.53;11437752;25;20681;-62
2024/04/15 22:35:45;;;;;;;2.60;0.40;;;;;;;8.83;64.88;99128.50;11410141;25;20009;-63
2024/04/15 22:40:48;;;;;;;0.95;0.40;;;;;;;8.76;65.25;99125.53;11435493;25;20005;-63
2024/04/15 22:45:50;;;;;;;3.25;0.55;;;;;;;8.73;65.37;99138.25;11394968;25;20077;-63
2024/04/15 22:50:52;;;;;;;0.85;0.50;;;;;;;8.65;65.66;99138.97;11433653;25;20717;-63
2024/04/15 22:55:56;;;;;;;2.58;0.82;;;;;;;8.64;65.95;99140.75;11437498;25;20736;-63
2024/04/15 23:00:58;;;;;;;3.42;0.75;;;;;;;8.73;65.29;99141.75;11404498;25;20008;-63
2024/04/15 23:05:59;;;;;;;1.63;0.50;;;;;;;8.66;65.50;99145.91;11398679;25;20008;-62
2024/04/15 23:11:01;;;;;;;1.23;0.45;;;;;;;8.55;65.28;99146.06;11435013;25;20793;-62
2024/04/15 23:16:05;;;;;;;2.05;0.40;;;;;;;8.58;66.23;99145.78;11403190;25;20078;-62
2024/04/15 23:21:07;;;;;;;4.63;1.38;;;;;;;8.64;66.26;99139.91;11388096;25;20064;-63
2024/04/15 23:26:11;;;;;;;2.22;0.47;;;;;;;8.59;65.97;99139.50;11405014;25;20032;-63
2024/04/15 23:31:13;;;;;;;2.80;0.70;;;;;;;8.54;65.75;99144.38;11428000;25;20048;-62
2024/04/15 23:36:15;;;;;;;1.58;0.43;;;;;;;8.33;66.15;99150.56;11428258;25;20051;-62